Time;durP1;ratioP1;P1;durP2;ratioP2;P2;SDS_P1;SDS_P2;PMS_P1;PMS_P2;Temp;Humidity;BMP_temperature;BMP_pressure;BME280_temperature;BME280_humidity;BME280_pressure;Samples;Min_cycle;Max_cycle;Signal;HPM_P1;HPM_P2
2021/04/05 00:00:12;;;;;;;34.78;16.52;;;1.10;99.90;;;;;;4842227;29;20053;-79
2021/04/05 00:02:38;;;;;;;37.35;15.50;;;1.20;99.90;;;;;;4843328;29;20034;-80
2021/04/05 00:05:11;;;;;;;32.28;16.73;;;1.30;99.90;;;;;;4842738;29;20086;-78
2021/04/05 00:07:37;;;;;;;29.27;14.43;;;1.30;99.90;;;;;;4856834;29;20057;-80
2021/04/05 00:10:18;;;;;;;32.67;16.00;;;1.30;99.90;;;;;;4857326;29;20034;-79
2021/04/05 00:12:45;;;;;;;32.40;14.98;;;1.30;99.90;;;;;;4843317;29;20046;-79
2021/04/05 00:15:12;;;;;;;29.92;14.50;;;1.20;99.90;;;;;;4854110;29;20371;-79
2021/04/05 00:17:39;;;;;;;33.67;15.30;;;1.10;99.90;;;;;;4843470;29;20038;-80
2021/04/05 00:20:15;;;;;;;33.95;14.85;;;1.30;99.90;;;;;;4841061;29;20044;-77
2021/04/05 00:22:43;;;;;;;30.60;15.57;;;1.30;99.90;;;;;;4842386;29;20045;-79
2021/04/05 00:25:11;;;;;;;29.33;14.27;;;1.30;99.90;;;;;;4842014;29;20056;-80
2021/04/05 00:27:38;;;;;;;27.85;14.80;;;1.40;99.90;;;;;;4843006;29;20034;-79
2021/04/05 00:30:16;;;;;;;35.17;15.32;;;1.30;99.90;;;;;;4855989;29;20049;-79
2021/04/05 00:32:47;;;;;;;40.05;15.05;;;1.30;99.90;;;;;;4842111;29;20041;-79
2021/04/05 00:35:21;;;;;;;31.57;13.70;;;1.30;99.90;;;;;;4842364;29;20369;-79
2021/04/05 00:37:49;;;;;;;31.20;14.63;;;1.40;99.90;;;;;;4842398;29;20030;-79
2021/04/05 00:40:26;;;;;;;30.98;14.00;;;1.40;99.90;;;;;;4841813;29;20109;-78
2021/04/05 00:42:52;;;;;;;27.98;15.45;;;1.20;99.90;;;;;;4841816;29;20053;-79
2021/04/05 00:45:19;;;;;;;30.98;14.38;;;1.20;99.90;;;;;;4842519;29;20048;-79
2021/04/05 00:47:50;;;;;;;43.47;16.50;;;1.30;99.90;;;;;;4841546;29;20054;-79
2021/04/05 00:50:21;;;;;;;30.88;14.57;;;1.30;99.90;;;;;;4841960;29;20054;-77
2021/04/05 00:52:52;;;;;;;30.55;15.75;;;1.30;99.90;;;;;;4842173;29;20042;-78
2021/04/05 00:55:19;;;;;;;31.40;14.77;;;1.30;99.90;;;;;;4841414;29;20056;-79
2021/04/05 00:57:46;;;;;;;27.58;15.02;;;1.10;99.90;;;;;;4842557;29;20038;-79
2021/04/05 01:00:15;;;;;;;36.67;16.50;;;1.10;99.90;;;;;;4842170;29;20037;-79
2021/04/05 01:02:42;;;;;;;41.08;19.25;;;1.10;99.90;;;;;;4844580;29;20038;-79
2021/04/05 01:05:12;;;;;;;34.72;16.55;;;1.20;99.90;;;;;;4843642;29;20054;-78
2021/04/05 01:07:39;;;;;;;41.97;17.67;;;1.20;99.90;;;;;;4847577;29;20056;-78
2021/04/05 01:10:08;;;;;;;33.42;15.75;;;1.20;99.90;;;;;;4849278;29;20283;-79
2021/04/05 01:12:34;;;;;;;39.22;17.60;;;1.20;99.90;;;;;;4843561;29;20054;-79
2021/04/05 01:15:01;;;;;;;38.95;17.95;;;1.10;99.90;;;;;;4843696;29;20049;-79
2021/04/05 01:17:27;;;;;;;38.97;18.10;;;1.20;99.90;;;;;;4842673;29;20052;-79
2021/04/05 01:19:53;;;;;;;35.55;18.92;;;1.20;99.90;;;;;;4843182;29;20034;-79
2021/04/05 01:22:20;;;;;;;42.13;17.80;;;1.30;99.90;;;;;;4852071;29;20045;-79
2021/04/05 01:24:46;;;;;;;39.13;18.83;;;1.40;99.90;;;;;;4862762;29;20054;-79
2021/04/05 01:27:12;;;;;;;44.03;18.73;;;1.40;99.90;;;;;;4842867;29;20061;-79
2021/04/05 01:29:39;;;;;;;31.67;17.02;;;1.50;99.90;;;;;;4841983;29;20361;-80
2021/04/05 01:32:05;;;;;;;37.50;19.20;;;1.60;99.90;;;;;;4842040;29;20042;-79
2021/04/05 01:34:35;;;;;;;42.60;20.15;;;1.60;99.90;;;;;;4841704;29;20053;-80
2021/04/05 01:37:02;;;;;;;36.33;20.23;;;1.60;99.90;;;;;;4841499;29;20057;-80
2021/04/05 01:39:28;;;;;;;45.72;20.92;;;1.60;99.90;;;;;;4841813;29;20041;-79
2021/04/05 01:41:54;;;;;;;38.70;20.65;;;1.60;99.90;;;;;;4841336;29;20045;-79
2021/04/05 01:44:20;;;;;;;40.85;21.10;;;1.70;99.90;;;;;;4841624;29;20033;-79
2021/04/05 01:46:47;;;;;;;39.97;19.23;;;1.60;99.90;;;;;;4841312;29;20499;-79
2021/04/05 01:49:14;;;;;;;35.47;18.25;;;1.60;99.90;;;;;;4841182;29;20061;-78
2021/04/05 01:51:40;;;;;;;40.13;19.45;;;1.60;99.90;;;;;;4841316;29;20045;-79
2021/04/05 01:54:06;;;;;;;43.53;20.20;;;1.60;99.90;;;;;;4842334;29;20069;-79
2021/04/05 01:56:33;;;;;;;36.55;18.65;;;1.70;99.90;;;;;;4844577;29;20050;-79
2021/04/05 01:58:59;;;;;;;37.85;20.30;;;1.80;99.90;;;;;;4845093;29;20034;-79
2021/04/05 02:01:28;;;;;;;43.65;18.90;;;1.80;99.90;;;;;;4852605;29;20045;-79
2021/04/05 02:03:56;;;;;;;39.60;20.00;;;1.80;99.90;;;;;;4853554;29;20037;-79
2021/04/05 02:06:28;;;;;;;41.85;21.45;;;1.80;99.90;;;;;;4843843;29;20042;-79
2021/04/05 02:08:55;;;;;;;44.95;21.67;;;2.10;99.90;;;;;;4844140;29;20050;-79
2021/04/05 02:11:27;;;;;;;36.92;20.33;;;2.20;99.90;;;;;;4844267;29;20416;-79
2021/04/05 02:13:55;;;;;;;39.13;21.60;;;2.20;99.90;;;;;;4844743;29;20050;-80
2021/04/05 02:16:24;;;;;;;41.60;20.20;;;2.20;99.90;;;;;;4844623;29;20495;-80
2021/04/05 02:18:51;;;;;;;40.00;20.00;;;2.30;99.90;;;;;;4844150;29;20392;-80
2021/04/05 02:21:20;;;;;;;39.42;19.75;;;2.20;99.90;;;;;;4843955;29;20404;-80
2021/04/05 02:23:49;;;;;;;42.17;20.48;;;2.30;99.90;;;;;;4844955;29;20045;-80
2021/04/05 02:26:24;;;;;;;39.35;19.92;;;2.40;99.90;;;;;;4843968;29;20052;-80
2021/04/05 02:28:53;;;;;;;33.58;18.63;;;2.40;99.90;;;;;;4844173;29;20034;-80
2021/04/05 02:31:24;;;;;;;28.83;17.85;;;2.40;99.90;;;;;;4844201;29;20030;-79
2021/04/05 02:33:53;;;;;;;37.50;18.95;;;2.40;99.90;;;;;;4844427;29;20046;-80
2021/04/05 02:36:30;;;;;;;41.75;19.20;;;2.40;99.90;;;;;;4843432;29;20508;-79
2021/04/05 02:39:05;;;;;;;40.05;18.08;;;2.50;99.90;;;;;;4859386;29;20030;-80
2021/04/05 02:41:35;;;;;;;33.65;18.00;;;2.50;99.90;;;;;;4844486;29;20056;-76
2021/04/05 02:44:02;;;;;;;37.47;17.20;;;2.70;99.90;;;;;;4843437;29;20045;-78
2021/04/05 02:46:31;;;;;;;32.97;17.45;;;2.70;99.90;;;;;;4842408;29;20034;-79
2021/04/05 02:49:00;;;;;;;32.40;17.20;;;2.70;99.90;;;;;;4843895;29;20480;-79
2021/04/05 02:51:27;;;;;;;28.13;15.90;;;2.70;99.90;;;;;;4843507;29;20038;-79
2021/04/05 02:54:04;;;;;;;31.80;17.83;;;2.80;99.90;;;;;;4844575;29;20057;-80
2021/04/05 02:56:30;;;;;;;28.70;16.77;;;2.80;99.90;;;;;;4844306;29;20041;-79
2021/04/05 02:58:58;;;;;;;25.20;15.23;;;2.80;99.90;;;;;;4843853;29;20033;-79
2021/04/05 03:01:26;;;;;;;29.40;16.17;;;2.80;99.90;;;;;;4844110;29;20037;-79
2021/04/05 03:03:56;;;;;;;40.20;15.98;;;2.80;99.90;;;;;;4844549;29;20045;-81
2021/04/05 03:06:23;;;;;;;28.73;14.60;;;2.80;99.90;;;;;;4843575;29;20037;-80
2021/04/05 03:08:50;;;;;;;32.72;16.05;;;2.80;99.90;;;;;;4852773;29;20053;-78
2021/04/05 03:11:20;;;;;;;26.30;14.65;;;2.80;99.90;;;;;;4844667;29;20045;-79
2021/04/05 03:13:47;;;;;;;27.23;15.93;;;2.90;99.90;;;;;;4844944;29;20045;-80
2021/04/05 03:16:20;;;;;;;27.40;14.98;;;2.80;99.90;;;;;;4843494;29;20053;-79
2021/04/05 03:18:47;;;;;;;35.70;14.77;;;2.90;99.90;;;;;;4844372;29;20050;-78
2021/04/05 03:21:15;;;;;;;24.92;14.95;;;3.00;99.90;;;;;;4843217;29;20038;-79
2021/04/05 03:23:43;;;;;;;23.73;14.65;;;3.00;99.90;;;;;;4844719;29;20045;-79
2021/04/05 03:26:09;;;;;;;26.02;14.98;;;3.00;99.90;;;;;;4852154;29;20053;-80
2021/04/05 03:28:36;;;;;;;23.80;14.10;;;3.00;99.90;;;;;;4843950;29;20041;-80
2021/04/05 03:31:12;;;;;;;31.17;14.80;;;3.00;99.90;;;;;;4845022;29;20045;-80
2021/04/05 03:33:55;;;;;;;24.80;13.57;;;3.00;99.90;;;;;;4843251;29;20385;-79
2021/04/05 03:36:31;;;;;;;23.90;15.23;;;3.00;99.90;;;;;;4843324;29;20399;-78
2021/04/05 03:38:58;;;;;;;27.67;12.95;;;3.10;99.90;;;;;;4843391;29;20044;-78
2021/04/05 03:41:33;;;;;;;28.98;15.20;;;3.10;99.90;;;;;;4843044;29;20034;-79
2021/04/05 03:44:28;;;;;;;21.52;12.95;;;3.10;99.90;;;;;;4843297;29;20025;-78
2021/04/05 03:46:59;;;;;;;24.73;12.73;;;3.10;99.90;;;;;;4827058;29;20077;-79
2021/04/05 03:49:40;;;;;;;29.08;13.10;;;3.20;99.90;;;;;;4842872;29;20054;-79
2021/04/05 03:52:19;;;;;;;20.60;12.02;;;3.20;99.90;;;;;;4842420;29;20480;-76
2021/04/05 03:54:49;;;;;;;24.15;11.65;;;3.20;99.90;;;;;;4843000;29;20692;-80
2021/04/05 03:57:20;;;;;;;30.27;12.50;;;3.20;99.90;;;;;;4842721;29;20041;-79
2021/04/05 03:59:51;;;;;;;24.67;12.50;;;3.30;99.90;;;;;;4843472;29;20048;-79
2021/04/05 04:02:21;;;;;;;28.20;13.27;;;3.30;99.90;;;;;;4842326;29;20038;-78
2021/04/05 04:05:09;;;;;;;31.75;12.18;;;3.20;99.90;;;;;;4843092;29;20291;-80
2021/04/05 04:07:40;;;;;;;24.45;11.38;;;3.20;99.90;;;;;;4842893;29;20042;-80
2021/04/05 04:10:10;;;;;;;;;;;3.30;99.90;;;;;;4843265;29;20040;-79
2021/04/05 04:12:39;;;;;;;20.23;9.57;;;3.30;99.90;;;;;;4842855;29;20260;-80
2021/04/05 04:15:07;;;;;;;21.02;11.10;;;3.30;99.90;;;;;;4842840;29;20042;-78
2021/04/05 04:17:36;;;;;;;23.73;12.60;;;3.30;99.90;;;;;;4841626;29;20034;-80
2021/04/05 04:20:08;;;;;;;29.58;11.52;;;3.30;99.90;;;;;;4842490;29;20046;-79
2021/04/05 04:22:35;;;;;;;21.48;11.30;;;3.40;99.90;;;;;;4842749;29;20392;-79
2021/04/05 04:25:03;;;;;;;21.58;10.85;;;3.50;99.90;;;;;;4842422;29;20419;-79
2021/04/05 04:27:29;;;;;;;22.23;10.85;;;3.50;99.90;;;;;;4842212;29;20045;-79
2021/04/05 04:29:57;;;;;;;26.17;14.55;;;3.50;99.90;;;;;;4842455;29;20041;-79
2021/04/05 04:32:24;;;;;;;23.70;13.93;;;3.50;99.90;;;;;;4842103;29;20053;-79
2021/04/05 04:34:50;;;;;;;26.38;13.05;;;3.50;99.90;;;;;;4842549;29;20042;-79
2021/04/05 04:37:17;;;;;;;24.75;12.23;;;3.40;99.90;;;;;;4841756;29;20041;-79
2021/04/05 04:39:43;;;;;;;21.80;10.93;;;3.50;99.90;;;;;;4842199;29;20038;-80
2021/04/05 04:42:11;;;;;;;21.23;10.27;;;3.50;99.90;;;;;;4840620;29;20037;-78
2021/04/05 04:44:37;;;;;;;19.65;10.45;;;3.60;99.90;;;;;;4841821;29;20058;-78
2021/04/05 04:47:04;;;;;;;19.00;9.10;;;3.60;99.90;;;;;;4842389;29;20046;-79
2021/04/05 04:49:30;;;;;;;19.27;9.55;;;3.60;99.90;;;;;;4842282;29;20492;-79
2021/04/05 04:51:57;;;;;;;20.60;11.75;;;3.60;99.90;;;;;;4842179;29;20471;-78
2021/04/05 04:54:24;;;;;;;20.08;10.93;;;3.60;99.90;;;;;;4841892;29;20045;-80
2021/04/05 04:56:51;;;;;;;85.15;39.90;;;3.70;99.90;;;;;;4842665;29;20503;-79
2021/04/05 04:59:19;;;;;;;65.35;31.73;;;3.70;99.90;;;;;;4841998;29;20033;-80
2021/04/05 05:01:46;;;;;;;425.38;188.02;;;3.80;99.90;;;;;;4842339;29;20038;-79
2021/04/05 05:04:19;;;;;;;81.55;36.38;;;3.90;99.90;;;;;;4842211;29;20506;-79
2021/04/05 05:06:47;;;;;;;63.15;26.63;;;3.90;99.90;;;;;;4842745;29;20491;-79
2021/04/05 05:09:15;;;;;;;50.28;25.20;;;4.00;99.90;;;;;;4842218;29;20037;-78
2021/04/05 05:11:42;;;;;;;75.63;33.47;;;4.10;99.90;;;;;;4842327;29;20034;-79
2021/04/05 05:14:08;;;;;;;211.07;99.47;;;4.10;99.90;;;;;;4842067;29;20060;-77
2021/04/05 05:16:36;;;;;;;84.30;41.47;;;4.10;99.90;;;;;;4841920;29;20064;-79
2021/04/05 05:19:03;;;;;;;35.42;19.23;;;4.20;99.90;;;;;;4841707;29;20061;-80
2021/04/05 05:21:40;;;;;;;44.10;21.77;;;4.30;99.90;;;;;;4841613;29;20038;-80
2021/04/05 05:24:09;;;;;;;56.08;29.60;;;4.20;99.90;;;;;;4841282;29;20408;-80
2021/04/05 05:26:37;;;;;;;28.15;14.48;;;4.20;99.90;;;;;;4841748;29;20042;-79
2021/04/05 05:29:07;;;;;;;23.95;12.95;;;4.20;99.90;;;;;;4844695;29;20125;-78
2021/04/05 05:31:36;;;;;;;36.38;21.63;;;4.30;99.90;;;;;;4845160;29;20037;-78
2021/04/05 05:34:03;;;;;;;28.52;15.30;;;4.30;99.90;;;;;;4846054;29;20034;-79
2021/04/05 05:36:29;;;;;;;28.15;16.15;;;4.30;99.90;;;;;;4844563;29;20042;-78
2021/04/05 05:39:00;;;;;;;25.13;14.30;;;4.30;99.90;;;;;;4843165;29;20476;-78
2021/04/05 05:41:52;;;;;;;34.83;17.07;;;4.40;99.90;;;;;;4844768;29;20049;-79
2021/04/05 05:44:24;;;;;;;21.23;12.25;;;4.40;99.90;;;;;;4844724;29;20029;-79
2021/04/05 05:47:06;;;;;;;24.98;10.70;;;4.50;99.90;;;;;;4844534;29;20041;-77
2021/04/05 05:49:57;;;;;;;23.30;10.75;;;4.60;99.90;;;;;;4844764;29;20511;-79
2021/04/05 05:52:42;;;;;;;19.92;9.68;;;4.70;99.90;;;;;;4843893;29;20070;-77
2021/04/05 05:55:23;;;;;;;19.17;10.73;;;4.70;99.90;;;;;;4844412;29;20488;-79
2021/04/05 05:58:02;;;;;;;20.80;10.68;;;4.80;99.90;;;;;;4845250;29;20038;-79
2021/04/05 06:00:58;;;;;;;19.27;9.82;;;5.00;99.90;;;;;;4844466;29;20349;-79
2021/04/05 06:03:42;;;;;;;19.40;10.80;;;5.00;99.90;;;;;;4844202;29;20404;-79
2021/04/05 06:06:18;;;;;;;26.15;11.00;;;5.10;99.90;;;;;;4844503;29;20042;-77
2021/04/05 06:08:59;;;;;;;25.02;11.88;;;5.40;99.90;;;;;;4844816;29;20404;-79
2021/04/05 06:11:44;;;;;;;;;;;5.70;99.90;;;;;;4844493;29;20050;-79
2021/04/05 06:14:16;;;;;;;29.00;11.95;;;6.20;99.90;;;;;;4844588;29;19912;-79
2021/04/05 06:17:15;;;;;;;27.02;14.57;;;6.50;97.60;;;;;;4844552;29;20062;-78
2021/04/05 06:19:50;;;;;;;32.63;15.35;;;6.90;95.00;;;;;;4844193;29;20050;-79
2021/04/05 06:22:31;;;;;;;28.83;15.85;;;7.10;93.30;;;;;;4862267;29;20046;-79
2021/04/05 06:25:26;;;;;;;28.13;14.32;;;7.20;91.80;;;;;;4844401;29;20042;-79
2021/04/05 06:28:01;;;;;;;26.25;15.57;;;7.30;91.40;;;;;;4844575;29;20030;-79
2021/04/05 06:30:48;;;;;;;28.65;15.10;;;7.40;90.70;;;;;;4843546;29;20057;-80
2021/04/05 06:33:32;;;;;;;27.85;15.93;;;7.50;90.20;;;;;;4862140;29;20045;-78
2021/04/05 06:36:21;;;;;;;27.90;16.55;;;7.80;87.30;;;;;;4844384;29;20057;-79
2021/04/05 06:38:54;;;;;;;33.15;16.52;;;8.00;85.90;;;;;;4843784;29;20030;-79
2021/04/05 06:41:52;;;;;;;30.17;16.27;;;8.00;83.90;;;;;;4842943;29;20053;-79
2021/04/05 06:44:56;;;;;;;30.00;16.35;;;7.90;83.90;;;;;;4843945;29;20061;-79
2021/04/05 06:47:54;;;;;;;31.40;17.17;;;8.10;83.20;;;;;;4843093;29;20069;-80
2021/04/05 06:50:43;;;;;;;29.20;16.58;;;8.90;80.40;;;;;;4853548;29;20044;-81
2021/04/05 06:53:36;;;;;;;27.88;16.65;;;9.00;77.90;;;;;;4872464;29;20038;-79
2021/04/05 06:56:35;;;;;;;27.50;15.75;;;9.30;76.70;;;;;;4861220;29;20054;-79
2021/04/05 06:59:15;;;;;;;27.10;15.98;;;9.50;73.90;;;;;;4850684;29;20061;-79
2021/04/05 07:01:59;;;;;;;27.95;16.75;;;9.60;73.20;;;;;;4867203;29;20046;-79
2021/04/05 07:04:43;;;;;;;27.85;16.73;;;9.70;71.70;;;;;;4844223;29;20467;-79
2021/04/05 07:07:46;;;;;;;25.73;17.05;;;9.80;70.80;;;;;;4843278;29;20053;-78
2021/04/05 07:10:37;;;;;;;108.72;52.55;;;9.80;70.00;;;;;;4842758;29;20050;-79
2021/04/05 07:13:25;;;;;;;37.38;21.95;;;9.80;69.70;;;;;;4843560;29;20056;-79
2021/04/05 07:16:11;;;;;;;29.45;18.70;;;9.70;70.20;;;;;;4843553;29;20050;-79
2021/04/05 07:19:07;;;;;;;38.83;21.83;;;9.60;69.60;;;;;;4843300;29;20037;-79
2021/04/05 07:22:16;;;;;;;28.90;18.08;;;9.40;69.30;;;;;;4853348;29;20048;-79
2021/04/05 07:24:57;;;;;;;30.23;16.90;;;9.20;71.10;;;;;;4857494;29;20057;-79
2021/04/05 07:27:38;;;;;;;27.83;17.48;;;9.50;70.70;;;;;;4842711;29;20029;-79
2021/04/05 07:30:25;;;;;;;28.38;17.13;;;9.50;70.70;;;;;;4843104;29;20037;-79
2021/04/05 07:33:23;;;;;;;26.05;16.10;;;9.50;68.20;;;;;;4843901;29;20033;-78
2021/04/05 07:35:58;;;;;;;29.80;16.98;;;9.70;67.80;;;;;;4843051;29;20050;-80
2021/04/05 07:38:48;;;;;;;33.25;17.67;;;9.70;67.00;;;;;;4844091;29;20038;-79
2021/04/05 07:41:36;;;;;;;29.38;16.52;;;9.80;67.00;;;;;;4832265;29;20400;-80
2021/04/05 07:44:26;;;;;;;24.48;15.68;;;9.50;67.20;;;;;;4843724;29;20145;-80
2021/04/05 07:47:19;;;;;;;30.10;16.90;;;9.60;67.10;;;;;;4842569;29;20057;-80
2021/04/05 07:49:55;;;;;;;27.27;16.95;;;9.60;67.00;;;;;;4843392;29;20045;-80
2021/04/05 07:52:35;;;;;;;30.42;17.52;;;9.40;67.90;;;;;;4841805;29;20504;-80
2021/04/05 07:55:03;;;;;;;29.93;18.03;;;9.40;67.50;;;;;;4843193;29;20066;-80
2021/04/05 07:57:43;;;;;;;28.58;15.95;;;9.40;67.40;;;;;;4844381;29;20630;-80
2021/04/05 08:00:12;;;;;;;27.90;15.93;;;9.50;67.00;;;;;;4842181;29;20034;-76
2021/04/05 08:03:01;;;;;;;26.83;14.95;;;9.50;67.40;;;;;;4842973;29;20049;-81
2021/04/05 08:06:02;;;;;;;29.67;15.90;;;9.70;66.70;;;;;;4842746;29;20034;-81
2021/04/05 08:08:51;;;;;;;25.67;14.43;;;9.80;66.30;;;;;;4842081;29;20026;-80
2021/04/05 08:11:55;;;;;;;26.77;15.68;;;9.70;65.90;;;;;;4842153;29;20046;-79
2021/04/05 08:14:43;;;;;;;27.98;15.75;;;9.50;66.00;;;;;;4843479;29;20038;-80
2021/04/05 08:17:34;;;;;;;27.27;15.02;;;9.50;66.30;;;;;;4844651;29;20396;-77
2021/04/05 08:20:18;;;;;;;;;;;9.30;66.60;;;;;;4851805;29;20037;-80
2021/04/05 08:22:51;;;;;;;24.33;13.95;;;9.30;67.30;;;;;;4852040;29;19912;-81
2021/04/05 08:25:43;;;;;;;25.25;14.68;;;9.30;66.40;;;;;;4842965;29;20049;-81
2021/04/05 08:28:15;;;;;;;29.08;15.35;;;9.00;67.60;;;;;;4842810;29;20046;-78
2021/04/05 08:30:53;;;;;;;27.30;14.70;;;8.90;68.60;;;;;;4854644;29;20395;-80
2021/04/05 08:33:40;;;;;;;25.92;15.27;;;9.10;68.10;;;;;;4846305;29;20038;-80
2021/04/05 08:36:25;;;;;;;25.83;15.07;;;8.90;67.40;;;;;;4842207;29;20045;-80
2021/04/05 08:39:02;;;;;;;26.98;16.10;;;8.90;68.00;;;;;;4841953;29;20026;-81
2021/04/05 08:41:46;;;;;;;26.98;14.82;;;8.80;68.10;;;;;;4841833;29;20049;-80
2021/04/05 08:44:49;;;;;;;29.40;15.15;;;8.70;68.50;;;;;;4842049;29;20022;-80
2021/04/05 08:47:20;;;;;;;27.80;14.30;;;8.70;68.70;;;;;;4830591;29;20100;-80
2021/04/05 08:49:48;;;;;;;31.70;15.48;;;8.70;68.60;;;;;;4841869;29;20030;-80
2021/04/05 08:52:19;;;;;;;30.65;16.02;;;8.70;68.50;;;;;;4841632;29;20037;-80
2021/04/05 08:54:49;;;;;;;25.27;14.02;;;8.70;69.10;;;;;;4856140;29;20050;-79
2021/04/05 08:57:29;;;;;;;25.13;14.88;;;8.70;69.40;;;;;;4841803;29;20488;-80
2021/04/05 09:00:08;;;;;;;28.17;15.40;;;8.70;69.80;;;;;;4841990;29;20050;-80
2021/04/05 09:02:43;;;;;;;31.27;17.02;;;8.80;69.80;;;;;;4847334;29;20041;-81
2021/04/05 09:05:15;;;;;;;29.55;15.48;;;8.60;70.00;;;;;;4857933;29;20034;-81
2021/04/05 09:08:03;;;;;;;26.88;15.02;;;8.60;70.40;;;;;;4846912;29;20045;-80
2021/04/05 09:10:41;;;;;;;31.38;15.55;;;8.60;71.10;;;;;;4865575;29;20040;-81
2021/04/05 09:13:23;;;;;;;28.02;16.33;;;8.60;72.30;;;;;;4860467;29;20046;-80
2021/04/05 09:16:16;;;;;;;31.63;15.70;;;8.50;72.60;;;;;;4844805;29;20056;-81
2021/04/05 09:18:55;;;;;;;24.17;14.88;;;8.40;73.20;;;;;;4845857;29;20049;-81
2021/04/05 09:21:58;;;;;;;30.17;15.40;;;8.40;73.80;;;;;;4844127;29;20049;-81
2021/04/05 09:24:50;;;;;;;31.30;15.93;;;8.40;74.70;;;;;;4845361;29;20041;-80
2021/04/05 09:27:50;;;;;;;32.42;17.40;;;8.40;75.00;;;;;;4856425;29;20046;-80
2021/04/05 09:30:43;;;;;;;32.80;16.58;;;8.30;76.00;;;;;;4860172;29;20038;-82
2021/04/05 09:33:12;;;;;;;28.17;17.80;;;8.20;77.00;;;;;;4864039;29;20045;-81
2021/04/05 09:35:42;;;;;;;30.30;16.85;;;8.20;77.60;;;;;;4847317;29;20055;-81
2021/04/05 09:38:14;;;;;;;33.25;17.48;;;8.40;77.60;;;;;;4845582;29;20034;-81
2021/04/05 09:41:17;;;;;;;34.90;17.58;;;8.40;77.50;;;;;;4845913;29;20041;-82
2021/04/05 09:44:19;;;;;;;35.47;16.23;;;8.40;77.90;;;;;;4845583;29;20042;-81
2021/04/05 09:47:10;;;;;;;31.58;16.85;;;8.40;77.50;;;;;;4841767;29;20042;-81
2021/04/05 09:49:55;;;;;;;;;;;8.40;78.20;;;;;;4845737;29;20050;-81
2021/04/05 09:52:29;;;;;;;38.75;17.20;;;8.40;78.10;;;;;;4848858;29;20278;-80
2021/04/05 09:55:04;;;;;;;33.63;17.63;;;8.50;78.60;;;;;;4856903;29;20380;-81
2021/04/05 09:57:51;;;;;;;34.15;19.08;;;8.60;78.20;;;;;;4846960;29;20062;-81
2021/04/05 10:00:18;;;;;;;37.53;18.40;;;8.60;78.00;;;;;;4851783;29;20042;-78
2021/04/05 10:02:51;;;;;;;35.13;19.45;;;8.50;78.20;;;;;;4843770;29;20049;-80
2021/04/05 10:05:23;;;;;;;34.92;18.35;;;8.50;78.30;;;;;;4844273;29;20049;-79
2021/04/05 10:07:51;;;;;;;35.00;19.70;;;8.50;79.00;;;;;;4844814;29;20033;-80
2021/04/05 10:10:20;;;;;;;40.95;19.15;;;8.50;78.70;;;;;;4845709;29;20037;-79
2021/04/05 10:12:47;;;;;;;33.85;17.65;;;8.50;78.70;;;;;;4844657;29;20056;-80
2021/04/05 10:15:17;;;;;;;31.55;19.17;;;8.50;79.00;;;;;;4842907;29;20463;-79
2021/04/05 10:17:48;;;;;;;39.97;19.33;;;8.60;78.90;;;;;;4844820;29;20045;-77
2021/04/05 10:20:16;;;;;;;31.40;18.88;;;8.70;78.70;;;;;;4844234;29;20034;-79
2021/04/05 10:22:47;;;;;;;34.60;19.83;;;8.60;78.40;;;;;;4844503;29;20038;-80
2021/04/05 10:25:20;;;;;;;31.17;17.85;;;8.70;79.00;;;;;;4844364;29;20045;-79
2021/04/05 10:27:48;;;;;;;36.75;19.08;;;8.70;78.20;;;;;;4845123;29;20038;-80
2021/04/05 10:30:15;;;;;;;39.00;20.08;;;8.80;78.20;;;;;;4857953;29;20056;-83
2021/04/05 10:32:43;;;;;;;38.60;19.17;;;8.90;77.70;;;;;;4844907;29;20570;-82
2021/04/05 10:35:12;;;;;;;31.73;17.58;;;9.00;77.40;;;;;;4844633;29;20033;-81
2021/04/05 10:37:45;;;;;;;32.15;18.42;;;9.10;77.50;;;;;;4843811;29;20163;-78
2021/04/05 10:40:14;;;;;;;35.30;21.13;;;9.00;77.30;;;;;;4844282;29;20030;-80
2021/04/05 10:42:53;;;;;;;31.23;17.10;;;8.90;77.10;;;;;;4844241;29;20034;-81
2021/04/05 10:45:32;;;;;;;31.40;18.17;;;8.70;77.80;;;;;;4842973;29;20100;-80
2021/04/05 10:48:19;;;;;;;34.17;19.35;;;8.70;78.60;;;;;;4843910;29;20440;-81
2021/04/05 10:51:06;;;;;;;33.17;17.48;;;8.70;78.50;;;;;;4844692;29;20072;-81
2021/04/05 10:53:38;;;;;;;29.15;17.63;;;8.60;78.90;;;;;;4843566;29;20066;-80
2021/04/05 10:56:07;;;;;;;31.38;17.77;;;8.70;79.20;;;;;;4844297;29;20062;-79
2021/04/05 10:58:58;;;;;;;35.17;19.83;;;8.60;79.10;;;;;;4843354;29;20034;-80
2021/04/05 11:01:25;;;;;;;29.25;16.77;;;8.60;78.90;;;;;;4842731;29;20049;-79
2021/04/05 11:03:52;;;;;;;31.92;18.13;;;8.50;79.50;;;;;;4844049;29;20030;-80
2021/04/05 11:06:22;;;;;;;38.00;19.27;;;8.50;80.00;;;;;;4843338;29;20036;-80
2021/04/05 11:08:51;;;;;;;30.13;17.45;;;8.50;80.00;;;;;;4843725;29;20040;-80
2021/04/05 11:11:21;;;;;;;29.92;17.13;;;8.50;79.90;;;;;;4843062;29;20064;-80
2021/04/05 11:13:53;;;;;;;34.63;19.13;;;8.50;80.50;;;;;;4843477;29;20392;-79
2021/04/05 11:16:22;;;;;;;28.27;16.45;;;8.60;80.70;;;;;;4842690;29;20038;-82
2021/04/05 11:18:55;;;;;;;29.83;16.02;;;8.60;80.40;;;;;;4848044;29;20034;-82
2021/04/05 11:21:32;;;;;;;29.00;17.83;;;8.60;80.20;;;;;;4852485;29;20061;-79
2021/04/05 11:23:59;;;;;;;31.75;17.67;;;8.60;79.70;;;;;;4861103;29;20067;-87
2021/04/05 11:26:32;;;;;;;30.65;16.85;;;8.70;79.80;;;;;;4860819;29;20049;-84
2021/04/05 11:29:03;;;;;;;30.95;15.88;;;8.80;79.40;;;;;;4844319;29;20037;-85
2021/04/05 11:31:40;;;;;;;24.35;14.13;;;8.80;78.90;;;;;;4843755;29;20037;-85
2021/04/05 11:34:07;;;;;;;26.05;14.30;;;8.80;78.20;;;;;;4844041;29;20334;-85
2021/04/05 11:36:39;;;;;;;25.85;15.73;;;8.80;78.40;;;;;;4842020;29;20050;-83
2021/04/05 11:39:11;;;;;;;25.85;14.15;;;8.80;78.70;;;;;;4843439;29;20042;-83
2021/04/05 11:41:38;;;;;;;27.55;14.63;;;8.90;78.70;;;;;;4845530;29;20034;-83
2021/04/05 11:44:06;;;;;;;27.23;13.55;;;8.90;77.80;;;;;;4847300;29;20057;-88
2021/04/05 11:46:37;;;;;;;21.85;12.65;;;9.00;77.70;;;;;;4847688;29;20049;-87
2021/04/05 11:49:11;;;;;;;;;;;8.90;77.50;;;;;;4845762;29;20054;-87
2021/04/05 11:51:39;;;;;;;21.13;12.15;;;8.80;78.50;;;;;;4863739;29;19912;-82
2021/04/05 11:54:08;;;;;;;19.70;11.10;;;8.70;80.00;;;;;;4859873;29;20046;-85
2021/04/05 11:56:37;;;;;;;24.33;12.10;;;8.70;82.00;;;;;;4856280;29;20280;-85
2021/04/05 11:59:18;;;;;;;23.67;12.43;;;8.60;82.20;;;;;;4846472;29;20042;-85
2021/04/05 12:02:01;;;;;;;18.77;12.10;;;8.70;82.20;;;;;;4845671;29;20487;-83
2021/04/05 12:04:32;;;;;;;23.23;12.38;;;8.70;83.40;;;;;;4859389;29;20066;-82
2021/04/05 12:07:03;;;;;;;19.50;10.43;;;8.60;82.30;;;;;;4843738;29;20049;-85
2021/04/05 12:09:46;;;;;;;20.92;12.55;;;8.60;82.00;;;;;;4842096;29;20418;-85
2021/04/05 12:12:34;;;;;;;18.25;11.35;;;8.50;81.70;;;;;;4845158;29;20026;-86
2021/04/05 12:15:03;;;;;;;19.73;11.52;;;8.60;81.10;;;;;;4846972;29;20041;-87
2021/04/05 12:17:32;;;;;;;17.52;10.98;;;8.50;80.90;;;;;;4846480;29;20046;-85
2021/04/05 12:20:01;;;;;;;23.65;12.07;;;8.50;82.40;;;;;;4860685;29;20033;-85
2021/04/05 12:22:32;;;;;;;20.48;12.00;;;8.40;83.80;;;;;;4854412;29;20036;-86
2021/04/05 12:25:04;;;;;;;21.50;12.43;;;8.20;86.70;;;;;;4864888;29;20029;-85
2021/04/05 12:27:35;;;;;;;22.10;11.48;;;8.10;90.60;;;;;;4865232;29;20037;-86
2021/04/05 12:30:04;;;;;;;19.75;12.32;;;8.00;92.30;;;;;;4866904;29;20471;-84
2021/04/05 12:32:31;;;;;;;22.08;12.77;;;8.00;93.30;;;;;;4868842;29;20068;-83
2021/04/05 12:35:03;;;;;;;21.65;11.65;;;7.80;93.90;;;;;;4865282;29;20391;-84
2021/04/05 12:37:31;;;;;;;18.55;12.10;;;7.70;96.40;;;;;;4864777;29;20063;-84
2021/04/05 12:40:01;;;;;;;21.20;13.25;;;7.60;98.20;;;;;;4868465;29;20037;-85
2021/04/05 12:42:34;;;;;;;19.38;12.45;;;7.60;99.80;;;;;;4865140;29;20037;-83
2021/04/05 12:45:03;;;;;;;20.55;12.48;;;7.40;99.90;;;;;;4869062;29;20037;-85
2021/04/05 12:47:35;;;;;;;23.50;13.30;;;7.30;99.90;;;;;;4866755;29;20038;-84
2021/04/05 12:50:07;;;;;;;19.35;13.75;;;7.30;99.90;;;;;;4863295;29;20038;-82
2021/04/05 12:52:38;;;;;;;21.17;12.80;;;7.30;99.90;;;;;;4867270;29;20056;-83
2021/04/05 12:55:16;;;;;;;20.77;13.07;;;7.20;99.90;;;;;;4868879;29;20261;-85
2021/04/05 12:57:43;;;;;;;24.13;14.07;;;7.20;99.90;;;;;;4868789;29;20483;-82
2021/04/05 13:00:21;;;;;;;21.98;13.25;;;7.20;99.90;;;;;;4869215;29;20030;-86
2021/04/05 13:03:14;;;;;;;15.07;6.03;;;7.20;99.90;;;;;;4863628;29;20045;-89
2021/04/05 13:05:53;;;;;;;5.22;2.60;;;6.80;99.50;;;;;;4863669;29;20033;-87
2021/04/05 13:08:23;;;;;;;3.60;1.52;;;5.20;99.90;;;;;;4863551;29;20036;-84
2021/04/05 13:11:12;;;;;;;2.30;0.93;;;4.40;99.90;;;;;;4864922;29;20033;-85
2021/04/05 13:13:50;;;;;;;2.58;1.40;;;4.10;99.90;;;;;;4864801;29;20042;-84
2021/04/05 13:16:29;;;;;;;3.47;1.10;;;4.00;99.90;;;;;;4864660;29;20037;-79